Time;durP1;ratioP1;P1;durP2;ratioP2;P2;SDS_P1;SDS_P2;PMS_P1;PMS_P2;Temp;Humidity;BMP_temperature;BMP_pressure;BME280_temperature;BME280_humidity;BME280_pressure;Samples;Min_cycle;Max_cycle;Signal;HPM_P1;HPM_P2
2020/12/01 00:02:02;;;;;;;34.59;25.44;;;7.50;99.90;;;12.33;95.94;101095.69;1683078;75;24957;-80
2020/12/01 00:04:19;;;;;;;35.50;23.84;;;7.40;99.90;;;12.46;96.13;101093.16;1691999;75;24899;-80
2020/12/01 00:06:35;;;;;;;37.74;27.03;;;7.50;99.90;;;12.36;96.04;101096.55;1690164;75;24528;-81
2020/12/01 00:08:51;;;;;;;40.31;28.23;;;7.50;99.90;;;12.44;96.25;101095.33;1685303;75;24470;-80
2020/12/01 00:11:14;;;;;;;40.39;27.63;;;7.50;99.90;;;12.52;96.85;101107.55;1692023;74;24967;-80
2020/12/01 00:13:30;;;;;;;41.01;28.52;;;7.50;99.90;;;12.46;96.27;101104.91;1694134;74;24441;-79
2020/12/01 00:15:46;;;;;;;40.73;28.85;;;7.50;99.90;;;12.45;96.60;101108.81;1681461;75;24929;-80
2020/12/01 00:18:03;;;;;;;38.26;28.20;;;7.60;99.90;;;12.53;97.04;101117.58;1685954;75;24556;-79
2020/12/01 00:20:23;;;;;;;38.99;25.36;;;7.60;99.90;;;12.65;96.32;101118.53;1695107;75;24434;-80
2020/12/01 00:22:39;;;;;;;37.81;27.99;;;7.60;99.90;;;12.44;95.75;101109.23;1681331;75;24450;-79
2020/12/01 00:24:55;;;;;;;41.64;28.70;;;7.60;99.90;;;12.56;96.08;101120.22;1688742;75;24421;-80
2020/12/01 00:27:11;;;;;;;39.53;28.10;;;7.60;99.90;;;12.63;95.73;101124.63;1688137;74;24485;-80
2020/12/01 00:29:27;;;;;;;43.02;29.29;;;7.60;99.90;;;12.72;96.47;101127.30;1686142;75;24498;-80
2020/12/01 00:31:45;;;;;;;46.92;30.03;;;7.60;99.90;;;12.74;96.58;101131.65;1683680;75;24468;-80
2020/12/01 00:34:01;;;;;;;37.83;28.38;;;7.60;99.90;;;12.99;96.57;101125.69;1694639;75;24851;-79
2020/12/01 00:36:28;;;;;;;42.71;28.99;;;7.70;99.90;;;13.11;95.84;101132.34;1689242;74;24446;-81
2020/12/01 00:38:44;;;;;;;39.91;29.65;;;7.70;99.90;;;13.00;95.85;101130.50;1692094;74;24487;-81
2020/12/01 00:41:01;;;;;;;43.42;30.48;;;7.70;99.90;;;13.04;95.98;101127.94;1685770;74;24450;-81
2020/12/01 00:43:19;;;;;;;44.70;28.61;;;7.70;99.90;;;12.90;95.89;101118.27;1683730;75;24453;-80
2020/12/01 00:45:35;;;;;;;41.31;29.27;;;7.70;99.90;;;12.84;95.01;101111.67;1687412;75;24476;-80
2020/12/01 00:47:52;;;;;;;37.55;27.44;;;7.70;99.90;;;12.86;94.83;101101.69;1690262;75;24488;-80
2020/12/01 00:50:11;;;;;;;40.80;28.60;;;7.70;99.90;;;12.74;94.77;101104.21;1692423;74;24906;-80
2020/12/01 00:52:28;;;;;;;46.20;29.31;;;7.70;99.90;;;12.76;95.57;101106.41;1694927;75;24949;-79
2020/12/01 00:54:45;;;;;;;44.08;29.60;;;7.70;99.90;;;12.80;95.18;101102.08;1683497;75;24468;-80
2020/12/01 00:57:01;;;;;;;41.12;28.38;;;7.70;99.90;;;12.79;95.32;101102.50;1688671;74;24620;-80
2020/12/01 00:59:18;;;;;;;43.99;30.05;;;7.70;99.90;;;12.75;94.93;101096.84;1690564;74;24509;-80
2020/12/01 01:01:36;;;;;;;39.68;28.86;;;7.80;99.90;;;12.79;95.45;101097.28;1678451;75;24482;-79
2020/12/01 01:03:52;;;;;;;41.00;28.00;;;7.70;99.90;;;12.74;96.08;101096.83;1679321;74;24574;-81
2020/12/01 01:06:12;;;;;;;41.53;29.48;;;7.70;99.90;;;12.81;95.37;101093.36;1689389;74;24447;-81
2020/12/01 01:08:28;;;;;;;41.73;29.00;;;7.80;99.90;;;12.75;95.86;101105.09;1688229;75;25088;-81
2020/12/01 01:10:45;;;;;;;45.31;29.80;;;7.80;99.90;;;12.73;96.93;101108.13;1685070;75;24480;-81
2020/12/01 01:13:03;;;;;;;39.58;27.55;;;7.80;99.90;;;12.73;96.67;101114.66;1692131;74;24445;-79
2020/12/01 01:15:23;;;;;;;45.17;29.39;;;7.80;99.90;;;12.81;96.48;101119.08;1691128;75;24500;-80
2020/12/01 01:17:39;;;;;;;34.02;22.72;;;7.80;99.90;;;12.68;96.59;101123.78;1690429;75;24457;-79
2020/12/01 01:19:55;;;;;;;36.40;23.09;;;7.90;99.90;;;12.71;96.45;101121.18;1690570;75;24898;-80
2020/12/01 01:22:11;;;;;;;32.23;21.61;;;7.80;99.90;;;12.74;97.10;101127.73;1680750;75;24933;-81
2020/12/01 01:24:28;;;;;;;23.09;16.63;;;7.90;99.90;;;12.81;96.63;101115.58;1687329;75;25067;-80
2020/12/01 01:26:52;;;;;;;27.03;17.62;;;7.90;99.90;;;12.73;97.82;101122.07;1685491;75;24531;-80
2020/12/01 01:29:08;;;;;;;23.79;15.32;;;8.00;99.90;;;12.76;98.97;101122.09;1685981;73;24561;-81
2020/12/01 01:31:24;;;;;;;22.64;15.81;;;8.00;99.90;;;12.75;99.10;101132.53;1680766;75;24473;-81
2020/12/01 01:33:40;;;;;;;19.63;13.02;;;8.00;99.90;;;12.84;99.31;101124.74;1691288;75;24457;-81
2020/12/01 01:36:08;;;;;;;23.20;13.97;;;8.00;99.90;;;12.74;97.98;101129.03;1695341;75;24429;-80
2020/12/01 01:38:26;;;;;;;22.52;13.17;;;8.00;99.90;;;12.86;99.36;101127.83;1695700;75;24448;-80
2020/12/01 01:40:42;;;;;;;22.31;13.08;;;8.00;99.90;;;12.91;99.42;101124.81;1698572;75;24759;-81
2020/12/01 01:43:00;;;;;;;21.49;13.10;;;8.00;99.90;;;12.99;99.23;101131.38;1688999;75;24691;-82
2020/12/01 01:45:23;;;;;;;20.65;13.12;;;8.10;99.90;;;12.97;99.44;101127.88;1683373;75;24437;-81
2020/12/01 01:47:49;;;;;;;19.72;11.70;;;8.10;99.90;;;12.97;99.45;101131.37;1684809;75;24437;-81
2020/12/01 01:50:09;;;;;;;20.80;11.55;;;8.10;99.90;;;12.97;99.26;101136.59;1692257;75;24938;-81
2020/12/01 01:52:30;;;;;;;19.43;11.47;;;8.00;99.90;;;12.94;99.06;101138.31;1690919;74;24891;-81
2020/12/01 01:57:25;;;;;;;20.09;10.78;;;8.00;99.90;;;13.21;98.96;101133.27;1739830;72;25229;-80
2020/12/01 01:59:45;;;;;;;20.68;10.21;;;8.00;99.90;;;13.05;98.95;101133.62;1709265;74;24440;-80
2020/12/01 02:02:04;;;;;;;19.43;9.87;;;8.00;99.90;;;13.05;99.55;101138.86;1709329;74;24469;-81
2020/12/01 02:04:21;;;;;;;17.21;9.03;;;8.00;99.90;;;12.90;99.00;101139.18;1714868;74;24514;-80
2020/12/01 02:06:42;;;;;;;21.21;9.01;;;8.00;99.90;;;12.85;99.37;101141.73;1711804;74;24465;-81
2020/12/01 02:09:09;;;;;;;16.68;8.17;;;8.00;99.90;;;12.86;99.17;101143.92;1712244;74;24463;-81
2020/12/01 02:11:32;;;;;;;16.71;7.20;;;8.00;99.90;;;12.83;99.02;101138.27;1709822;74;24426;-81
2020/12/01 02:13:53;;;;;;;18.93;7.79;;;7.90;99.90;;;12.71;98.40;101128.17;1712949;74;24964;-81
2020/12/01 02:16:12;;;;;;;16.85;6.40;;;7.80;99.90;;;12.70;98.53;101137.73;1707315;74;24452;-79
2020/12/01 02:18:38;;;;;;;18.11;6.18;;;7.80;99.90;;;12.61;98.02;101127.66;1707340;74;24902;-79
2020/12/01 02:20:54;;;;;;;16.14;4.81;;;7.80;99.90;;;12.66;98.39;101127.26;1702378;74;24497;-80
2020/12/01 02:23:10;;;;;;;21.10;5.42;;;7.70;99.90;;;12.55;98.27;101128.47;1715990;74;25105;-80
2020/12/01 02:25:26;;;;;;;17.31;4.80;;;7.60;99.90;;;12.52;97.44;101126.30;1713156;74;24433;-80
2020/12/01 02:27:43;;;;;;;14.86;4.65;;;7.60;99.90;;;12.44;97.64;101126.67;1709101;74;24509;-80
2020/12/01 02:30:12;;;;;;;18.76;4.48;;;7.50;99.90;;;12.32;97.25;101135.27;1680526;75;24456;-82
2020/12/01 02:32:31;;;;;;;16.50;4.25;;;7.50;99.90;;;12.27;97.34;101136.97;1708987;74;24484;-80
2020/12/01 02:34:51;;;;;;;18.13;4.33;;;7.50;99.90;;;12.37;97.91;101134.88;1706532;75;24957;-80
2020/12/01 02:37:10;;;;;;;17.30;4.06;;;7.40;99.90;;;12.29;97.67;101135.67;1712384;74;24530;-81
2020/12/01 02:39:28;;;;;;;19.90;4.97;;;7.40;99.90;;;12.33;97.70;101137.01;1715337;74;24875;-80
2020/12/01 02:41:43;;;;;;;12.79;3.68;;;7.30;99.90;;;12.33;97.49;101138.77;1708660;74;24487;-80
2020/12/01 02:44:00;;;;;;;17.59;4.37;;;7.30;99.90;;;12.32;97.21;101131.36;1708559;74;24422;-80
2020/12/01 02:46:16;;;;;;;14.82;3.90;;;7.30;99.90;;;12.29;97.17;101133.95;1706869;74;24442;-80
2020/12/01 02:48:32;;;;;;;22.09;4.57;;;7.30;99.90;;;12.25;97.70;101136.52;1717402;74;24928;-79
2020/12/01 02:50:49;;;;;;;11.58;3.51;;;7.20;99.90;;;12.25;97.04;101137.83;1712618;74;24459;-80
2020/12/01 02:53:05;;;;;;;15.45;3.63;;;7.20;99.90;;;12.22;97.11;101132.13;1710635;74;24446;-81
2020/12/01 02:55:22;;;;;;;16.97;3.59;;;7.20;99.90;;;12.20;97.25;101132.58;1708656;74;24516;-79
2020/12/01 02:57:39;;;;;;;18.32;3.96;;;7.20;99.90;;;12.11;96.93;101130.74;1719036;74;24448;-80
2020/12/01 02:59:55;;;;;;;16.84;3.49;;;7.20;99.90;;;12.10;97.36;101132.04;1708407;74;24522;-80
2020/12/01 03:02:13;;;;;;;13.43;3.52;;;7.10;99.90;;;12.05;97.14;101135.03;1711448;74;25170;-81
2020/12/01 03:04:29;;;;;;;19.85;3.66;;;7.10;99.90;;;12.05;97.76;101132.42;1711252;74;24644;-81
2020/12/01 03:07:00;;;;;;;20.74;3.67;;;7.10;99.90;;;12.08;97.92;101125.92;1710989;74;24444;-81
2020/12/01 03:09:20;;;;;;;20.77;3.76;;;7.10;99.90;;;12.04;97.58;101125.02;1709357;74;24474;-80
2020/12/01 03:11:36;;;;;;;19.00;4.24;;;7.00;99.90;;;11.94;97.39;101128.42;1709773;73;24453;-81
2020/12/01 03:13:52;;;;;;;20.74;3.75;;;7.00;99.90;;;11.91;97.52;101133.61;1714984;74;24521;-79
2020/12/01 03:16:09;;;;;;;21.04;4.06;;;7.00;99.90;;;11.92;97.29;101126.63;1709648;74;24446;-79
2020/12/01 03:18:25;;;;;;;18.06;3.52;;;7.00;99.90;;;11.88;97.27;101124.87;1717626;74;24438;-81
2020/12/01 03:23:12;;;;;;;15.68;3.84;;;6.90;99.90;;;11.90;97.01;101123.16;1731781;72;25348;-81
2020/12/01 03:25:28;;;;;;;14.78;4.03;;;6.90;99.90;;;11.68;97.25;101129.02;1693538;75;24453;-81
2020/12/01 03:27:44;;;;;;;21.04;4.56;;;6.90;99.90;;;11.64;97.71;101132.44;1703598;75;24545;-80
2020/12/01 03:30:03;;;;;;;21.28;4.69;;;6.80;99.90;;;11.60;97.71;101127.58;1697899;75;24933;-79
2020/12/01 03:32:23;;;;;;;18.96;4.01;;;6.80;99.90;;;11.59;97.74;101127.56;1703262;75;24457;-80
2020/12/01 03:34:39;;;;;;;19.86;4.71;;;6.80;99.90;;;11.53;97.62;101134.02;1688008;75;24532;-79
2020/12/01 03:36:55;;;;;;;20.28;4.21;;;6.70;99.90;;;11.46;97.01;101133.08;1695939;75;24447;-80
2020/12/01 03:39:11;;;;;;;18.30;4.49;;;6.70;99.90;;;11.48;97.40;101131.37;1699396;75;24437;-81
2020/12/01 03:41:27;;;;;;;21.22;4.79;;;6.60;99.90;;;11.47;97.30;101131.35;1689222;75;24510;-81
2020/12/01 03:43:46;;;;;;;18.41;4.35;;;6.60;99.90;;;11.59;98.09;101132.78;1699192;75;24924;-80
2020/12/01 03:46:02;;;;;;;21.90;4.55;;;6.60;99.90;;;11.54;97.87;101131.43;1692039;75;24500;-80
2020/12/01 03:48:18;;;;;;;22.53;4.32;;;6.60;99.90;;;11.46;97.48;101133.08;1692950;75;24519;-80
2020/12/01 03:50:35;;;;;;;22.96;4.31;;;6.60;99.90;;;11.47;96.93;101130.05;1697833;75;24482;-80
2020/12/01 03:52:52;;;;;;;22.89;4.90;;;6.60;99.90;;;11.54;97.57;101131.43;1685812;75;24917;-80
2020/12/01 03:55:09;;;;;;;21.70;4.84;;;6.60;99.90;;;11.54;96.73;101132.73;1701115;75;24938;-79
2020/12/01 03:57:28;;;;;;;23.79;5.32;;;6.60;99.90;;;11.66;97.15;101135.95;1698068;75;24493;-80
2020/12/01 03:59:44;;;;;;;25.14;6.12;;;6.70;99.90;;;11.70;96.80;101131.20;1694904;75;24461;-81
2020/12/01 04:02:03;;;;;;;24.09;4.81;;;6.70;99.90;;;11.73;97.15;101132.11;1694850;75;24793;-80
2020/12/01 04:04:20;;;;;;;19.54;4.57;;;6.70;99.90;;;11.85;97.17;101133.56;1704451;75;25036;-80
2020/12/01 04:06:36;;;;;;;20.05;4.46;;;6.80;99.90;;;11.92;96.42;101135.77;1702068;75;24935;-81
2020/12/01 04:08:52;;;;;;;24.72;4.99;;;6.90;99.90;;;11.82;95.64;101130.89;1700437;74;24410;-80
2020/12/01 04:11:08;;;;;;;20.81;4.79;;;6.90;99.90;;;12.01;96.46;101136.73;1696051;75;24882;-80
2020/12/01 04:13:24;;;;;;;21.36;4.40;;;7.00;99.90;;;12.03;96.34;101132.41;1702826;75;24539;-79
2020/12/01 04:15:41;;;;;;;16.00;4.33;;;7.00;99.90;;;11.93;95.81;101126.65;1690733;75;24489;-79
2020/12/01 04:17:57;;;;;;;25.88;4.48;;;7.00;99.90;;;11.96;96.36;101130.62;1684871;75;24457;-81
2020/12/01 04:20:15;;;;;;;22.05;4.26;;;7.00;99.90;;;12.02;96.75;101125.45;1702228;75;24448;-80
2020/12/01 04:22:31;;;;;;;21.91;4.25;;;7.00;99.90;;;12.17;96.37;101126.02;1703736;74;24881;-80
2020/12/01 04:24:51;;;;;;;21.50;4.46;;;7.10;99.90;;;12.29;96.42;101123.50;1693838;75;24478;-80
2020/12/01 04:27:07;;;;;;;27.16;5.37;;;7.10;99.90;;;12.29;96.41;101116.97;1694767;75;24520;-79
2020/12/01 04:29:23;;;;;;;21.80;4.41;;;7.20;99.90;;;12.34;96.31;101118.31;1695327;75;24921;-81
2020/12/01 04:31:39;;;;;;;19.70;5.02;;;7.20;99.90;;;12.36;96.75;101122.66;1696200;75;24492;-79
2020/12/01 04:33:55;;;;;;;19.69;4.56;;;7.20;99.90;;;12.42;96.10;101123.16;1694673;74;24580;-80
2020/12/01 04:36:18;;;;;;;20.63;4.21;;;7.30;99.90;;;12.41;96.35;101132.72;1697705;75;24448;-81
2020/12/01 04:38:34;;;;;;;17.11;3.62;;;7.30;99.90;;;12.39;96.25;101128.37;1697597;75;24416;-81
2020/12/01 04:40:50;;;;;;;20.84;3.96;;;7.40;99.90;;;12.27;96.23;101127.83;1694209;75;24460;-81
2020/12/01 04:43:16;;;;;;;19.20;4.31;;;7.40;99.90;;;12.29;96.71;101128.72;1685174;75;24521;-81
2020/12/01 04:45:33;;;;;;;21.44;3.78;;;7.40;99.90;;;12.29;96.42;101129.14;1695215;75;24433;-80
2020/12/01 04:47:58;;;;;;;17.39;4.08;;;7.50;99.90;;;12.32;96.59;101131.36;1693827;75;24619;-79
2020/12/01 04:50:19;;;;;;;15.84;3.70;;;7.50;99.90;;;12.30;95.96;101129.61;1701252;75;24866;-82
2020/12/01 04:53:16;;;;;;;17.42;4.20;;;7.50;99.90;;;12.33;96.03;101132.23;1697221;75;24526;-79
2020/12/01 04:56:02;;;;;;;17.70;4.24;;;7.50;99.90;;;12.39;96.07;101141.00;1702955;74;24445;-81
2020/12/01 05:01:58;;;;;;;19.28;3.80;;;7.50;99.90;;;12.51;95.88;101120.61;1740583;72;25271;-79
2020/12/01 05:04:19;;;;;;;17.26;3.49;;;7.40;99.90;;;12.21;95.12;101136.92;1711268;74;24464;-78
2020/12/01 05:06:55;;;;;;;18.86;3.61;;;7.40;99.90;;;12.37;96.27;101141.83;1707265;74;24501;-80
2020/12/01 05:09:14;;;;;;;12.93;3.44;;;7.40;99.90;;;12.31;96.60;101145.70;1708808;74;24993;-80
2020/12/01 05:11:45;;;;;;;17.46;3.56;;;7.40;99.90;;;12.30;95.69;101143.97;1707071;74;24416;-80
2020/12/01 05:17:05;;;;;;;13.02;3.94;;;7.40;99.90;;;12.67;95.97;101136.83;1747973;72;25255;-78
2020/12/01 05:19:37;;;;;;;15.45;3.01;;;7.40;99.90;;;12.46;96.08;101151.03;1705966;73;24499;-79
2020/12/01 05:21:53;;;;;;;13.75;3.22;;;7.40;99.90;;;12.52;96.10;101152.41;1697777;74;24464;-80
2020/12/01 05:24:09;;;;;;;12.37;3.01;;;7.40;99.90;;;12.56;96.12;101155.48;1714158;73;24441;-79
2020/12/01 05:26:29;;;;;;;17.36;3.95;;;7.50;99.90;;;12.51;96.31;101159.78;1699412;74;24530;-80
2020/12/01 05:28:51;;;;;;;18.95;3.68;;;7.50;99.90;;;12.50;95.43;101157.62;1688526;74;24827;-80
2020/12/01 05:31:09;;;;;;;11.42;3.49;;;7.50;99.90;;;12.45;95.91;101165.86;1711806;74;24545;-81
2020/12/01 05:33:30;;;;;;;14.83;3.78;;;7.50;99.90;;;12.37;95.73;101170.56;1700514;74;24458;-80
2020/12/01 05:35:47;;;;;;;14.83;3.67;;;7.50;99.90;;;12.45;96.21;101178.91;1717818;73;24476;-82
2020/12/01 05:38:09;;;;;;;12.55;3.54;;;7.50;99.90;;;12.42;95.99;101180.20;1699830;74;24512;-80
2020/12/01 05:40:31;;;;;;;17.39;3.67;;;7.50;99.90;;;12.35;96.04;101182.30;1709003;74;24549;-80
2020/12/01 05:42:50;;;;;;;14.76;4.24;;;7.50;99.90;;;12.44;96.16;101183.67;1700936;74;24885;-80
2020/12/01 05:45:06;;;;;;;15.49;3.85;;;7.50;99.90;;;12.40;96.05;101183.22;1710606;74;24433;-80
2020/12/01 05:47:28;;;;;;;14.98;3.90;;;7.50;99.90;;;12.43;96.18;101182.36;1688444;74;24898;-81
2020/12/01 05:49:50;;;;;;;17.24;4.03;;;7.50;99.90;;;12.39;96.00;101181.90;1701742;74;24994;-80
2020/12/01 05:52:12;;;;;;;12.48;3.74;;;7.50;99.90;;;12.34;96.22;101184.48;1707361;74;24992;-79
2020/12/01 05:54:38;;;;;;;14.97;3.70;;;7.50;99.90;;;12.37;96.10;101174.47;1701232;74;24519;-80
2020/12/01 05:56:59;;;;;;;18.10;4.11;;;7.50;99.90;;;12.40;96.30;101181.91;1715928;74;24522;-78
2020/12/01 05:59:21;;;;;;;13.92;4.31;;;7.50;99.90;;;12.42;96.01;101181.50;1709652;73;24386;-80
2020/12/01 06:01:48;;;;;;;18.30;4.37;;;7.50;99.90;;;12.36;96.49;101174.05;1701540;73;24869;-79
2020/12/01 06:04:18;;;;;;;13.49;3.87;;;7.50;99.90;;;12.42;95.96;101181.92;1692456;74;24488;-81
2020/12/01 06:06:49;;;;;;;13.08;4.52;;;7.50;99.90;;;12.36;96.35;101177.96;1709296;73;24465;-80
2020/12/01 06:09:13;;;;;;;15.17;4.29;;;7.40;99.90;;;12.31;96.59;101180.54;1697480;75;24928;-77
2020/12/01 06:11:52;;;;;;;18.22;4.68;;;7.40;99.90;;;12.50;95.81;101180.25;1676599;75;24458;-79
2020/12/01 06:14:17;;;;;;;17.15;4.77;;;7.40;99.90;;;12.44;96.48;101184.98;1695391;73;24476;-79
2020/12/01 06:16:43;;;;;;;18.85;5.42;;;7.40;99.90;;;12.46;96.74;101187.60;1714231;73;24959;-80
2020/12/01 06:19:20;;;;;;;19.64;5.50;;;7.40;99.90;;;12.47;96.71;101186.30;1703518;74;24882;-81
2020/12/01 06:22:25;;;;;;;20.14;6.24;;;7.50;99.90;;;12.43;96.50;101189.77;1707585;74;24880;-82
2020/12/01 06:25:30;;;;;;;17.67;5.92;;;7.40;99.90;;;12.58;96.46;101191.64;1702849;74;25100;-80
2020/12/01 06:28:33;;;;;;;16.28;6.84;;;7.40;99.90;;;12.59;95.47;101194.27;1708409;74;24519;-80
2020/12/01 06:31:47;;;;;;;27.06;7.57;;;7.40;99.90;;;12.65;96.25;101199.53;1697549;74;24441;-77
2020/12/01 06:35:12;;;;;;;17.23;7.28;;;7.40;99.90;;;12.63;96.51;101202.55;1704426;74;24920;-78
2020/12/01 06:40:32;;;;;;;21.86;8.77;;;7.40;99.90;;;12.76;96.61;101200.48;1730513;72;25227;-79
2020/12/01 06:42:54;;;;;;;19.99;8.43;;;7.50;99.90;;;12.58;97.13;101206.01;1707036;74;24461;-81
2020/12/01 06:45:30;;;;;;;23.04;9.45;;;7.50;99.90;;;12.63;97.12;101208.23;1704861;74;24913;-81
2020/12/01 06:47:50;;;;;;;20.37;9.40;;;7.50;99.90;;;12.62;97.01;101216.48;1714593;74;24429;-79
2020/12/01 06:50:11;;;;;;;19.22;10.45;;;7.60;99.90;;;12.70;97.12;101213.51;1710682;74;24432;-79
2020/12/01 06:53:05;;;;;;;22.91;11.12;;;7.60;99.90;;;12.70;96.88;101218.73;1709049;74;24438;-79
2020/12/01 06:56:04;;;;;;;24.80;11.41;;;7.60;99.90;;;12.73;97.31;101223.09;1703469;74;24464;-79
2020/12/01 06:58:43;;;;;;;22.00;10.30;;;7.60;99.90;;;12.76;96.81;101224.42;1705178;75;24490;-79
2020/12/01 07:01:36;;;;;;;20.88;11.05;;;7.60;99.90;;;12.91;97.12;101227.17;1695803;74;24480;-78
2020/12/01 07:04:28;;;;;;;23.83;11.26;;;7.60;99.90;;;12.84;96.70;101238.00;1693397;75;25040;-78
2020/12/01 07:06:50;;;;;;;26.01;10.72;;;7.70;99.90;;;12.90;97.02;101246.34;1713095;74;24504;-82
2020/12/01 07:12:39;;;;;;;24.63;12.08;;;7.70;99.90;;;13.13;95.93;101244.78;1750217;72;25705;-78
2020/12/01 07:15:17;;;;;;;24.00;11.71;;;7.70;99.90;;;12.96;96.60;101253.77;1721851;73;24463;-79
2020/12/01 07:17:56;;;;;;;27.63;12.71;;;7.70;99.90;;;13.06;96.38;101253.44;1727928;73;24459;-78
2020/12/01 07:20:47;;;;;;;23.51;12.40;;;7.70;99.90;;;13.03;96.56;101263.45;1713672;73;24626;-78
2020/12/01 07:23:12;;;;;;;28.62;12.18;;;7.80;99.90;;;13.16;96.44;101261.80;1724451;73;24470;-79
2020/12/01 07:25:37;;;;;;;27.44;12.57;;;7.80;99.90;;;13.28;96.14;101257.94;1724162;73;24422;-81
2020/12/01 07:28:18;;;;;;;25.17;12.19;;;7.80;99.90;;;13.21;95.75;101258.78;1684580;74;24457;-80
2020/12/01 07:30:52;;;;;;;24.42;12.51;;;7.80;99.90;;;13.21;96.18;101256.17;1732675;73;24455;-75
2020/12/01 07:33:16;;;;;;;23.49;11.94;;;7.80;99.90;;;13.17;95.72;101267.03;1715087;73;24525;-78
2020/12/01 07:35:39;;;;;;;25.19;12.18;;;7.90;99.90;;;13.09;96.23;101274.37;1715741;73;24540;-78
2020/12/01 07:38:10;;;;;;;24.40;11.90;;;7.90;99.90;;;13.16;96.39;101277.06;1714827;73;24896;-79
2020/12/01 07:40:32;;;;;;;24.98;12.43;;;8.00;99.90;;;13.20;95.97;101279.24;1717926;73;24504;-78
2020/12/01 07:42:48;;;;;;;23.63;12.77;;;8.00;99.90;;;13.11;97.14;101283.11;1714403;73;24520;-77
2020/12/01 07:45:15;;;;;;;22.63;12.81;;;8.00;99.90;;;13.09;97.74;101284.83;1714216;73;24527;-78
2020/12/01 07:47:32;;;;;;;23.29;12.37;;;8.10;99.90;;;13.11;98.50;101285.72;1680420;75;24968;-79
2020/12/01 07:50:02;;;;;;;25.76;12.55;;;8.10;99.90;;;13.04;99.19;101289.17;1714543;73;24627;-79
2020/12/01 07:55:05;;;;;;;17.30;9.99;;;8.30;99.90;;;13.42;99.04;101289.01;1743556;72;25254;-82
2020/12/01 07:57:24;;;;;;;11.75;7.87;;;8.30;99.90;;;13.14;100.00;101295.78;1718132;73;24520;-79
2020/12/01 07:59:45;;;;;;;10.82;7.28;;;8.40;99.90;;;13.09;100.00;101301.41;1690165;73;24477;-78
2020/12/01 08:04:36;;;;;;;11.77;5.65;;;8.50;99.90;;;13.32;100.00;101306.38;1735249;72;25344;-80
2020/12/01 08:07:04;;;;;;;8.85;4.59;;;8.60;99.90;;;13.09;100.00;101318.39;1718363;73;24661;-79
2020/12/01 08:09:24;;;;;;;8.86;4.22;;;8.60;99.90;;;13.23;100.00;101318.06;1715607;73;24894;-79
2020/12/01 08:11:47;;;;;;;7.67;3.59;;;8.70;99.90;;;13.35;100.00;101315.55;1720482;73;24519;-76
2020/12/01 08:14:03;;;;;;;7.58;3.29;;;8.70;99.90;;;13.22;100.00;101320.25;1720746;73;24445;-74
2020/12/01 08:16:34;;;;;;;8.83;3.57;;;8.80;99.90;;;13.35;100.00;101324.71;1721769;73;24567;-80
2020/12/01 08:18:54;;;;;;;8.35;3.05;;;8.80;99.90;;;13.23;100.00;101325.91;1721297;73;24508;-78
2020/12/01 08:21:24;;;;;;;8.43;2.72;;;8.80;99.90;;;13.21;100.00;101331.59;1714156;73;24518;-78
2020/12/01 08:23:44;;;;;;;12.04;2.66;;;8.80;99.90;;;13.25;100.00;101329.84;1719250;73;24494;-79
2020/12/01 08:26:08;;;;;;;9.21;2.78;;;8.80;99.90;;;13.37;100.00;101329.95;1713591;73;24538;-77
2020/12/01 08:28:36;;;;;;;14.33;3.26;;;8.90;99.90;;;13.41;100.00;101340.44;1715819;73;25201;-78
2020/12/01 08:31:02;;;;;;;15.58;3.50;;;8.90;99.90;;;13.37;100.00;101335.19;1712458;73;24587;-76
2020/12/01 08:33:34;;;;;;;15.60;3.41;;;8.90;99.90;;;13.33;100.00;101346.05;1721323;73;24936;-77
2020/12/01 08:36:09;;;;;;;17.02;3.62;;;8.90;99.90;;;13.32;100.00;101347.34;1724371;73;24647;-78
2020/12/01 08:54:27;;;;;;;21.68;4.89;;;8.80;99.90;;;13.47;99.89;101379.72;1749069;72;25336;-76
2020/12/01 08:59:53;;;;;;;29.12;5.28;;;8.90;99.90;;;13.66;99.12;101385.95;1743529;72;25778;-78
2020/12/01 09:02:13;;;;;;;28.53;5.26;;;8.90;99.90;;;13.31;99.96;101392.23;1724103;73;24523;-75
2020/12/01 09:07:29;;;;;;;28.41;5.88;;;8.90;99.90;;;13.66;98.97;101395.11;1736030;72;25821;-75
2020/12/01 09:12:37;;;;;;;25.27;5.59;;;9.00;99.90;;;13.52;98.73;101398.95;1736465;72;25391;-77
2020/12/01 09:17:42;;;;;;;22.64;5.27;;;9.10;99.90;;;13.35;99.22;101406.22;1723474;73;24461;-76
2020/12/01 09:20:20;;;;;;;27.80;5.89;;;9.20;99.90;;;13.20;99.32;101412.19;1713921;73;24512;-78
2020/12/01 09:22:38;;;;;;;26.36;5.91;;;9.20;99.90;;;13.16;99.77;101415.66;1721811;73;24500;-77
2020/12/01 09:25:14;;;;;;;35.19;6.29;;;9.20;99.90;;;13.27;99.22;101416.63;1717970;73;24515;-76
2020/12/01 09:27:34;;;;;;;23.84;5.28;;;9.20;99.90;;;13.38;99.74;101421.52;1721575;73;24935;-78
2020/12/01 09:29:56;;;;;;;29.45;6.21;;;9.20;99.90;;;13.32;99.40;101418.86;1722244;73;24552;-79
2020/12/01 09:34:52;;;;;;;26.82;6.31;;;9.30;99.90;;;13.55;98.73;101424.25;1739141;72;26137;-79
2020/12/01 09:37:14;;;;;;;29.84;5.63;;;9.30;99.90;;;13.38;99.17;101433.29;1710297;73;24956;-76
2020/12/01 09:39:42;;;;;;;36.04;6.25;;;9.30;99.90;;;13.38;98.90;101436.33;1703803;74;24604;-77
2020/12/01 09:42:06;;;;;;;30.98;6.99;;;9.40;99.90;;;13.33;98.34;101436.71;1702155;74;25052;-78
2020/12/01 09:44:43;;;;;;;30.79;6.22;;;9.40;99.90;;;13.39;98.86;101447.22;1702880;74;24550;-79
2020/12/01 09:46:54;;;;;;;25.89;5.93;;;9.40;99.90;;;13.29;98.92;101446.27;1700138;74;24467;-77
2020/12/01 09:49:15;;;;;;;25.76;6.47;;;9.40;99.90;;;13.35;99.20;101449.38;1701814;74;25089;-80
2020/12/01 09:51:49;;;;;;;27.20;6.56;;;9.50;99.90;;;13.32;99.22;101452.86;1710713;74;24493;-79
2020/12/01 09:54:17;;;;;;;30.00;6.53;;;9.50;99.90;;;13.31;98.87;101451.08;1711402;74;24926;-77
2020/12/01 09:56:41;;;;;;;26.84;6.47;;;9.50;99.90;;;13.40;98.57;101443.31;1695055;74;25036;-75
2020/12/01 09:59:27;;;;;;;28.31;5.90;;;9.50;99.90;;;13.59;98.73;101453.52;1707868;74;24547;-79
2020/12/01 10:09:21;;;;;;;28.93;5.77;;;9.80;99.90;;;13.87;96.38;101455.47;1704163;75;24935;-80
2020/12/01 10:17:39;;;;;;;22.55;5.76;;;10.10;99.90;;;13.91;95.52;101459.84;1703616;74;24916;-77
2020/12/01 10:20:26;;;;;;;21.17;5.37;;;10.20;99.90;;;13.88;95.20;101449.81;1701631;75;24478;-75
2020/12/01 10:35:29;;;;;;;21.71;5.74;;;10.30;99.90;;;14.13;94.55;101470.90;1703221;73;24529;-78
2020/12/01 10:37:45;;;;;;;24.51;7.42;;;10.30;99.90;;;14.13;94.31;101463.50;1702896;74;24609;-81
2020/12/01 10:40:04;;;;;;;18.80;5.06;;;10.40;99.90;;;14.18;93.84;101470.50;1704041;75;24496;-80
2020/12/01 10:42:20;;;;;;;20.00;4.76;;;10.40;99.90;;;13.90;93.89;101466.38;1704472;75;24984;-80
2020/12/01 10:44:36;;;;;;;23.34;5.13;;;10.40;99.90;;;14.10;93.76;101467.41;1703577;74;24772;-77
2020/12/01 10:46:53;;;;;;;21.35;5.33;;;10.40;99.90;;;13.95;93.29;101457.70;1703917;74;24480;-80
2020/12/01 10:49:14;;;;;;;19.59;4.46;;;10.40;99.90;;;13.74;93.41;101467.16;1704685;75;25118;-79
2020/12/01 10:51:36;;;;;;;21.63;5.50;;;10.40;99.90;;;13.87;93.69;101471.60;1702990;75;24596;-78
2020/12/01 10:53:56;;;;;;;26.42;4.91;;;10.40;99.90;;;13.89;93.35;101464.22;1703909;75;24969;-78
2020/12/01 10:56:15;;;;;;;20.80;4.60;;;10.40;99.90;;;14.19;93.88;101474.00;1707687;74;24491;-78
2020/12/01 10:58:34;;;;;;;20.56;4.57;;;10.40;99.90;;;14.20;93.34;101470.50;1703461;75;24980;-79
2020/12/01 11:00:56;;;;;;;23.50;5.32;;;10.40;99.90;;;14.14;93.36;101474.41;1707276;74;24519;-80
2020/12/01 11:03:14;;;;;;;19.62;5.14;;;10.50;99.90;;;14.24;93.04;101474.49;1707129;74;24760;-79
2020/12/01 11:05:34;;;;;;;19.00;4.54;;;10.50;99.90;;;14.27;93.13;101479.78;1706757;74;24814;-77
2020/12/01 11:07:50;;;;;;;17.07;4.23;;;10.60;99.90;;;14.17;92.27;101462.63;1711204;74;24602;-79
2020/12/01 11:10:12;;;;;;;18.58;4.42;;;10.60;99.90;;;14.18;92.60;101477.05;1702117;75;24501;-78
2020/12/01 11:12:29;;;;;;;16.04;4.60;;;10.60;99.90;;;14.07;92.31;101479.18;1703560;75;24579;-76